Latest Weather Observations for Nullo Mountain

IDN60801

Issued at 3:03 am EST Monday 25 May 2015 (issued every 30 minutes, with the page automatically refreshed every 10 minutes)

About weather observations | Map of weather stations | Latest weather observations for NSW | Other Formats
Station Details ID: 062100 Name: NULLO MOUNTAIN AWS Lat: -32.72 Lon: 150.23 Height: 1130.0 m
Data from the previous 72 hours. | See also: Recent months at Nullo Mountain
Date/Time
EST
Temp
°C
App
Temp
°C
Dew
Point
Rel
Hum
%
Delta-T
°C
Wind Press
QNH
hPa
Press
MSL
hPa
Rain
since 9 am
mm
Dir
 
Spd
km/h
Gust
km/h
Spd
kts
Gust
kts
25/03:00am 5.3 1.1 1.6 77 1.6 E 13 15 7 8 - - 0.2
25/02:30am 4.9 1.2 2.4 84 1.1 E 11 15 6 8 - - 0.2
25/02:00am 5.0 0.6 2.7 85 1.0 E 15 17 8 9 - - 0.2
25/01:30am 4.5 2.0 3.5 93 0.4 ENE 6 9 3 5 - - 0.0
25/01:00am 4.5 1.8 3.8 95 0.3 ENE 7 13 4 7 - - 0.0
25/12:30am 4.9 1.6 4.6 98 0.1 E 11 20 6 11 - - 0.0
25/12:00am 4.4 2.6 3.7 95 0.3 NE 2 6 1 3 - - 0.0
 
Date/Time
EST
Temp
°C
App
Temp
°C
Dew
Point
Rel
Hum
%
Delta-T
°C
Wind Press
QNH
hPa
Press
MSL
hPa
Rain
since 9 am
mm
Dir
 
Spd
km/h
Gust
km/h
Spd
kts
Gust
kts
24/11:30pm 4.9 3.2 3.9 93 0.5 NNE 2 6 1 3 - - 0.0
24/11:00pm 4.5 2.7 3.5 93 0.4 NE 2 9 1 5 - - 0.0
24/10:30pm 4.8 2.4 4.1 95 0.3 ENE 6 11 3 6 - - 0.0
24/10:00pm 4.6 1.8 3.4 92 0.5 E 7 11 4 6 - - 0.0
24/09:30pm 5.3 1.6 4.4 94 0.4 E 13 17 7 9 - - 0.0
24/09:00pm 4.8 2.2 4.2 96 0.3 E 7 9 4 5 - - 0.0
24/08:30pm 4.4 1.7 3.8 96 0.3 E 7 9 4 5 - - 0.0
24/08:00pm 4.1 1.5 3.2 94 0.4 E 6 7 3 4 - - 0.0
24/07:30pm 4.9 2.4 3.9 93 0.5 E 6 7 3 4 - - 0.0
24/07:00pm 5.0 2.5 4.0 93 0.5 E 6 7 3 4 - - 0.0
24/06:30pm 4.7 2.1 3.4 91 0.6 E 6 9 3 5 - - 0.0
24/06:00pm 4.6 2.4 3.1 90 0.7 E 4 7 2 4 - - 0.0
24/05:30pm 5.8 4.4 3.6 86 1.0 CALM 0 0 0 0 - - 0.0
24/05:00pm 6.5 5.1 3.7 82 1.3 CALM 0 0 0 0 - - 0.0
24/04:30pm 7.5 5.1 4.3 80 1.5 SE 6 6 3 3 - - 0.0
24/04:00pm 9.8 7.4 4.2 68 2.7 ESE 6 7 3 4 - - 0.0
24/03:30pm 10.0 7.6 4.2 67 2.8 SE 6 9 3 5 - - 0.0
24/03:00pm 10.2 7.5 3.7 64 3.1 ESE 7 9 4 5 - - 0.0
24/02:30pm 10.5 8.0 3.5 62 3.3 E 6 9 3 5 - - 0.0
24/02:00pm 11.2 9.1 4.0 61 3.4 WSW 4 7 2 4 - - 0.0
24/01:30pm 11.5 9.1 4.5 62 3.4 ESE 6 9 3 5 - - 0.0
24/01:00pm 12.0 9.9 4.0 58 3.8 WNW 4 7 2 4 - - 0.0
24/12:30pm 11.2 9.3 4.7 64 3.1 NE 4 9 2 5 - - 0.0
24/12:00pm 9.9 7.3 4.3 68 2.7 E 7 11 4 6 - - 0.0
24/11:30am 9.6 7.0 3.1 64 3.0 E 6 11 3 6 - - 0.0
24/11:00am 10.4 8.2 3.4 62 3.3 NE 4 7 2 4 - - 0.0
24/10:30am 9.3 6.8 1.7 59 3.4 ENE 4 7 2 4 - - 0.0
24/10:00am 7.9 4.9 2.2 67 2.5 E 7 9 4 5 - - 0.0
24/09:30am 7.7 5.0 2.4 69 2.4 E 6 9 3 5 - - 0.0
24/09:00am 6.9 4.4 3.9 81 1.4 E 6 9 3 5 - - 0.2
24/08:30am 5.3 3.8 5.2 99 0.0 E 2 7 1 4 - - 0.2
24/08:00am 3.3 1.8 3.2 99 0.0 CALM 0 4 0 2 - - 0.2
24/07:30am 2.6 1.0 2.5 99 0.0 CALM 0 0 0 0 - - 0.2
24/07:00am 2.4 0.0 2.3 99 0.0 SE 4 6 2 3 - - 0.2
24/06:30am 2.9 1.0 2.8 99 0.0 SE 2 4 1 2 - - 0.2
24/06:00am 2.6 0.6 2.5 99 0.0 SE 2 2 1 1 - - 0.2
24/05:30am 1.5 -1.0 1.4 99 0.0 S 4 6 2 3 - - 0.2
24/05:00am 2.1 -0.3 2.0 99 0.0 SSW 4 6 2 3 - - 0.2
24/04:30am 2.5 0.1 2.4 99 0.0 SSW 4 6 2 3 - - 0.2
24/04:00am 2.3 0.7 2.2 99 0.0 CALM 0 2 0 1 - - 0.2
24/03:30am 2.5 0.5 2.4 99 0.0 SSE 2 2 1 1 - - 0.0
24/03:00am 2.6 1.0 2.5 99 0.0 CALM 0 0 0 0 - - 0.0
24/02:30am 3.4 2.0 3.3 99 0.0 CALM 0 0 0 0 - - 0.0
24/02:00am 2.8 1.2 2.7 99 0.0 CALM 0 0 0 0 - - 0.0
24/01:30am 3.4 2.0 3.3 99 0.0 CALM 0 2 0 1 - - 0.0
24/01:00am 3.4 1.2 3.3 99 0.0 SE 4 4 2 2 - - 0.0
24/12:30am 3.2 1.3 3.1 99 0.0 ESE 2 4 1 2 - - 0.0
24/12:00am 3.7 1.5 3.6 99 0.0 ESE 4 4 2 2 - - 0.0
 
Date/Time
EST
Temp
°C
App
Temp
°C
Dew
Point
Rel
Hum
%
Delta-T
°C
Wind Press
QNH
hPa
Press
MSL
hPa
Rain
since 9 am
mm
Dir
 
Spd
km/h
Gust
km/h
Spd
kts
Gust
kts
23/11:30pm 3.6 1.4 3.5 99 0.0 ESE 4 4 2 2 - - 0.0
23/11:00pm 3.9 1.8 3.8 99 0.0 ESE 4 4 2 2 - - 0.0
23/10:30pm 3.3 1.1 3.2 99 0.0 SE 4 4 2 2 - - 0.0
23/10:00pm 3.5 0.9 3.4 99 0.0 ESE 6 7 3 4 - - 0.0
23/09:30pm 3.7 1.5 3.6 99 0.0 ESE 4 6 2 3 - - 0.0
23/09:00pm 3.6 1.4 3.3 98 0.1 ESE 4 6 2 3 - - 0.0
23/08:30pm 3.1 0.8 2.7 97 0.2 ESE 4 6 2 3 - - 0.0
23/08:00pm 3.3 0.6 2.6 95 0.3 ESE 6 7 3 4 - - 0.0
23/07:30pm 3.4 0.7 2.4 93 0.4 ESE 6 6 3 3 - - 0.0
23/07:00pm 4.4 1.9 3.5 94 0.4 ESE 6 6 3 3 - - 0.0
23/06:30pm 4.1 1.8 2.5 89 0.7 E 4 6 2 3 - - 0.0
23/06:00pm 4.7 2.5 3.2 90 0.7 ESE 4 6 2 3 - - 0.0
23/05:30pm 5.4 2.8 3.4 87 0.9 ESE 6 7 3 4 - - 0.0
23/05:00pm 6.4 4.4 4.2 86 1.0 ESE 4 4 2 2 - - 0.0
23/04:30pm 8.4 6.4 4.2 75 2.0 E 4 6 2 3 - - 0.0
23/04:00pm 9.1 7.0 4.1 71 2.3 E 4 6 2 3 - - 0.0
23/03:30pm 9.5 7.4 3.9 68 2.6 SE 4 7 2 4 - - 0.0
23/03:00pm 10.2 8.1 4.1 66 2.9 E 4 9 2 5 - - 0.0
23/02:30pm 10.0 7.4 4.4 68 2.7 E 7 11 4 6 - - 0.0
23/02:00pm 10.4 8.0 4.1 65 3.0 E 6 11 3 6 - - 0.0
23/01:30pm 10.1 7.6 4.9 70 2.5 E 7 13 4 7 - - 0.0
23/01:00pm 9.8 6.9 4.6 70 2.5 ESE 9 15 5 8 - - 0.0
23/12:30pm 9.5 6.6 4.9 73 2.2 SSE 9 15 5 8 - - 0.0
23/12:00pm 9.9 7.3 6.1 77 1.9 E 9 17 5 9 - - 0.0
23/11:30am 9.5 6.2 6.2 80 1.6 SE 13 20 7 11 - - 0.0
23/11:00am 9.0 5.1 5.4 78 1.7 ESE 15 22 8 12 - - 0.0
23/10:30am 8.1 3.7 4.9 80 1.5 SE 17 28 9 15 - - 0.0
23/10:00am 7.4 2.6 4.4 81 1.4 SE 19 26 10 14 - - 0.0
23/09:30am 7.0 2.0 4.7 85 1.1 ESE 20 28 11 15 - - 0.0
23/09:00am 6.4 2.4 4.7 89 0.8 ESE 15 28 8 15 - - 2.0
23/08:30am 5.6 1.6 4.7 94 0.4 ESE 15 24 8 13 - - 2.0
23/08:00am 5.3 1.3 5.0 98 0.1 ESE 15 24 8 13 - - 2.0
23/07:30am 5.2 0.9 5.1 99 0.0 ESE 17 26 9 14 - - 2.0
23/07:00am 5.3 0.6 5.3 100 0.0 ESE 19 33 10 18 - - 2.0
23/06:30am 5.5 0.9 5.5 100 0.0 SE 19 30 10 16 - - 2.0
23/06:00am 5.5 0.7 5.5 100 0.0 SE 20 35 11 19 - - 2.0
23/05:30am 5.7 0.9 5.7 100 0.0 SE 20 35 11 19 - - 1.8
23/05:00am 5.6 0.8 5.5 99 0.0 SE 20 39 11 21 - - 1.8
23/04:30am 5.6 0.8 5.5 99 0.0 SE 20 35 11 19 - - 1.8
23/04:00am 5.5 0.7 5.4 99 0.0 SE 20 39 11 21 - - 1.8
23/03:30am 5.5 0.9 5.4 99 0.0 SE 19 33 10 18 - - 1.8
23/03:00am 5.5 0.9 5.4 99 0.0 SE 19 32 10 17 - - 1.8
23/02:30am 5.5 1.2 5.4 99 0.0 SE 17 28 9 15 - - 1.8
23/02:00am 5.4 1.1 5.3 99 0.0 SE 17 33 9 18 - - 1.8
23/01:30am 5.4 1.1 5.1 98 0.1 SE 17 30 9 16 - - 1.8
23/01:00am 5.3 0.6 5.0 98 0.1 SE 19 32 10 17 - - 1.8
23/12:30am 5.4 1.1 5.1 98 0.1 SE 17 28 9 15 - - 1.8
23/12:00am 5.3 0.4 5.2 99 0.0 SE 20 33 11 18 - - 1.8
 
Date/Time
EST
Temp
°C
App
Temp
°C
Dew
Point
Rel
Hum
%
Delta-T
°C
Wind Press
QNH
hPa
Press
MSL
hPa
Rain
since 9 am
mm
Dir
 
Spd
km/h
Gust
km/h
Spd
kts
Gust
kts
22/11:30pm 5.3 0.5 4.9 97 0.2 SE 19 30 10 16 - - 1.8
22/11:00pm 5.4 0.1 4.8 96 0.3 SE 22 39 12 21 - - 1.8
22/10:30pm 5.3 0.9 4.9 97 0.2 SE 17 30 9 16 - - 1.8
22/10:00pm 5.5 0.2 4.8 95 0.3 SE 22 35 12 19 - - 1.8
22/09:30pm 5.7 -0.1 4.5 92 0.6 SSE 24 43 13 23 - - 1.8
22/09:00pm 5.7 0.3 4.7 93 0.5 SSE 22 41 12 22 - - 1.8
22/08:30pm 5.7 -0.1 4.5 92 0.6 SSE 24 39 13 21 - - 1.8
22/08:00pm 5.8 0.5 4.8 93 0.5 SSE 22 35 12 19 - - 1.8
22/07:30pm 5.7 0.4 5.1 96 0.3 SSE 22 39 12 21 - - 1.8
22/07:00pm 5.9 0.7 5.3 96 0.3 SSE 22 48 12 26 - - 1.8
22/06:30pm 6.0 0.4 5.3 95 0.3 SSE 24 41 13 22 - - 1.8
22/06:00pm 5.8 1.2 5.7 99 0.0 SSE 19 30 10 16 - - 1.8
22/05:30pm 6.1 0.1 5.4 95 0.3 SSE 26 41 14 22 - - 1.8
22/05:00pm 6.1 0.5 5.2 94 0.4 SSE 24 39 13 21 - - 1.8
22/04:30pm 6.7 1.5 5.3 91 0.7 SSE 22 39 12 21 - - 1.8
22/04:00pm 6.7 1.9 5.7 93 0.5 SSE 20 37 11 20 - - 1.8
22/03:30pm 7.1 1.5 5.4 89 0.8 SSE 24 39 13 21 - - 1.8
22/03:00pm 7.0 1.0 5.5 90 0.7 SSE 26 44 14 24 - - 1.8
22/02:44pm 6.8 0.1 5.6 92 0.6 SSE 30 52 16 28 - - 1.8
22/02:30pm 7.1 1.4 6.5 96 0.3 SSE 26 43 14 23 - - 1.8
22/02:00pm 7.4 3.1 7.1 98 0.1 SSE 19 33 10 18 - - 1.8
22/01:30pm 7.7 3.9 7.4 98 0.2 SSE 17 26 9 14 - - 1.8
22/01:00pm 7.4 3.2 7.3 99 0.0 S 19 32 10 17 - - 1.8
22/12:30pm 7.3 3.4 7.0 98 0.1 SSE 17 32 9 17 - - 1.0
22/12:00pm 7.5 4.0 7.2 98 0.1 S 15 22 8 12 - - 0.6
22/11:30am 7.1 3.9 7.0 99 0.0 S 13 20 7 11 - - 0.4
22/11:00am 7.2 2.9 6.9 98 0.1 SSE 19 30 10 16 - - 0.2
22/10:30am 7.0 2.5 6.9 99 0.0 SSE 20 33 11 18 - - 0.0
22/10:00am 7.0 3.7 6.6 97 0.2 SSE 13 22 7 12 - - 0.0
22/09:30am 7.0 4.4 6.3 95 0.3 S 9 15 5 8 - - 0.0
22/09:00am 6.7 4.2 6.4 98 0.1 SSW 9 15 5 8 - - 7.6
22/08:30am 6.3 4.3 6.2 99 0.0 SSW 6 11 3 6 - - 7.4
22/08:00am 6.0 3.7 5.9 99 0.0 SSW 7 13 4 7 - - 7.4
22/07:30am 6.1 4.0 6.0 99 0.0 SSW 6 11 3 6 - - 7.4
22/07:00am 6.1 4.0 6.0 99 0.0 SSW 6 11 3 6 - - 7.4
22/06:30am 6.2 4.2 6.1 99 0.0 SSW 6 11 3 6 - - 7.4
22/06:00am 6.5 4.3 6.4 99 0.0 SSW 7 13 4 7 - - 7.4
22/05:30am 6.6 4.5 6.5 99 0.0 SSW 7 11 4 6 - - 7.4
22/05:00am 6.4 3.8 6.3 99 0.0 S 9 15 5 8 - - 7.4
22/04:30am 6.5 4.3 6.2 98 0.1 SSW 7 13 4 7 - - 7.4
22/04:00am 6.6 4.0 6.2 97 0.2 S 9 15 5 8 - - 7.4
22/03:30am 6.7 4.2 6.4 98 0.1 SSE 9 13 5 7 - - 7.4

Other Formats:

Comma delimited format used in spreadsheet applications
http://www.bom.gov.au/fwo/IDN60801/IDN60801.94754.axf

JavaScript Object Notation format (JSON) in row-major order
http://www.bom.gov.au/fwo/IDN60801/IDN60801.94754.json